Time;durP1;ratioP1;P1;durP2;ratioP2;P2;SDS_P1;SDS_P2;PMS_P1;PMS_P2;Temp;Humidity;BMP_temperature;BMP_pressure;BME280_temperature;BME280_humidity;BME280_pressure;Samples;Min_cycle;Max_cycle;Signal;HPM_P1;HPM_P2
2021/11/22 00:02:25;;;;;;;16.15;12.23;;;5.70;99.90;;;;;;5036534;28;20028;-73
2021/11/22 00:04:51;;;;;;;15.10;12.27;;;5.70;99.90;;;;;;5036520;28;20394;-73
2021/11/22 00:07:17;;;;;;;13.85;12.02;;;5.70;99.90;;;;;;5036585;28;20041;-73
2021/11/22 00:09:44;;;;;;;19.13;13.13;;;5.70;99.90;;;;;;5041450;28;20052;-75
2021/11/22 00:12:14;;;;;;;14.52;11.52;;;5.70;99.90;;;;;;5040325;28;20029;-74
2021/11/22 00:14:39;;;;;;;20.13;12.50;;;5.80;99.90;;;;;;5039634;28;20022;-75
2021/11/22 00:17:05;;;;;;;17.67;13.02;;;5.90;99.90;;;;;;5039516;28;20032;-74
2021/11/22 00:19:31;;;;;;;15.25;12.35;;;5.90;99.90;;;;;;5039052;28;20527;-74
2021/11/22 00:21:57;;;;;;;18.83;13.10;;;5.90;99.90;;;;;;5049916;28;20030;-73
2021/11/22 00:24:22;;;;;;;18.35;13.20;;;5.90;99.90;;;;;;5053294;28;20112;-73
2021/11/22 00:26:48;;;;;;;16.85;13.15;;;5.90;99.90;;;;;;5051060;28;20037;-73
2021/11/22 00:29:14;;;;;;;17.70;13.65;;;5.90;99.90;;;;;;5053383;28;20048;-73
2021/11/22 00:31:41;;;;;;;16.33;13.63;;;5.90;99.90;;;;;;5044915;28;20026;-74
2021/11/22 00:34:07;;;;;;;17.48;13.40;;;5.80;99.90;;;;;;5035922;28;20060;-74
2021/11/22 00:36:37;;;;;;;20.75;14.80;;;5.80;99.90;;;;;;5035971;28;20408;-74
2021/11/22 00:39:05;;;;;;;17.23;14.00;;;5.80;99.90;;;;;;5038487;28;20033;-73
2021/11/22 00:41:30;;;;;;;22.38;14.10;;;5.70;99.90;;;;;;5038469;28;20048;-73
2021/11/22 00:43:56;;;;;;;18.75;14.30;;;5.80;99.90;;;;;;5037723;28;20018;-73
2021/11/22 00:46:24;;;;;;;21.88;14.45;;;5.80;99.90;;;;;;5036689;28;20069;-74
2021/11/22 00:48:50;;;;;;;21.45;14.05;;;5.80;99.90;;;;;;5036384;28;20026;-73
2021/11/22 00:51:16;;;;;;;27.38;14.93;;;5.90;99.90;;;;;;5036644;28;20029;-73
2021/11/22 00:53:41;;;;;;;27.05;16.85;;;5.80;99.90;;;;;;5036005;28;20049;-73
2021/11/22 00:56:07;;;;;;;24.25;16.52;;;5.70;99.90;;;;;;5035741;28;20366;-74
2021/11/22 00:58:32;;;;;;;28.58;17.40;;;5.60;99.90;;;;;;5036022;28;20029;-75
2021/11/22 01:01:01;;;;;;;28.63;17.10;;;5.70;99.90;;;;;;5035152;28;20025;-73
2021/11/22 01:03:27;;;;;;;35.20;18.58;;;5.90;99.90;;;;;;5035410;28;20052;-72
2021/11/22 01:05:52;;;;;;;29.13;17.50;;;5.70;99.90;;;;;;5036010;28;20389;-73
2021/11/22 01:08:18;;;;;;;29.55;17.25;;;5.60;99.90;;;;;;5034493;28;20504;-74
2021/11/22 01:10:44;;;;;;;30.05;17.92;;;5.60;99.90;;;;;;5035533;28;20021;-74
2021/11/22 01:13:13;;;;;;;20.92;15.52;;;5.60;99.90;;;;;;5035296;28;20409;-73
2021/11/22 01:15:39;;;;;;;26.88;15.95;;;5.60;99.90;;;;;;5036130;28;20025;-74
2021/11/22 01:18:05;;;;;;;27.45;17.45;;;5.80;99.90;;;;;;5034915;28;20044;-75
2021/11/22 01:20:33;;;;;;;25.73;16.05;;;5.70;99.90;;;;;;5038099;28;20481;-74
2021/11/22 01:23:03;;;;;;;26.65;16.92;;;5.70;99.90;;;;;;5040704;28;20036;-74
2021/11/22 01:25:29;;;;;;;23.70;15.13;;;5.80;99.90;;;;;;5040745;28;20044;-74
2021/11/22 01:27:56;;;;;;;27.15;15.77;;;5.70;99.90;;;;;;5038159;28;20025;-73
2021/11/22 01:30:22;;;;;;;26.45;16.23;;;5.70;99.90;;;;;;5039813;28;20422;-73
2021/11/22 01:32:48;;;;;;;24.23;16.15;;;5.70;99.90;;;;;;5040466;28;20032;-73
2021/11/22 01:35:15;;;;;;;22.90;16.23;;;5.70;99.90;;;;;;5039939;28;20370;-72
2021/11/22 01:37:42;;;;;;;21.40;13.98;;;5.80;99.90;;;;;;5037478;28;20025;-72
2021/11/22 01:40:13;;;;;;;26.55;15.55;;;5.80;99.90;;;;;;5039513;28;20033;-75
2021/11/22 01:42:40;;;;;;;;;;;5.80;99.90;;;;;;5039320;28;20424;-74
2021/11/22 01:45:08;;;;;;;24.10;15.75;;;5.90;99.90;;;;;;5037873;28;20261;-74
2021/11/22 01:47:34;;;;;;;25.95;15.60;;;5.90;99.90;;;;;;5038563;28;20061;-73
2021/11/22 01:50:00;;;;;;;19.67;15.30;;;5.90;99.90;;;;;;5040318;28;20097;-73
2021/11/22 01:52:26;;;;;;;25.80;15.70;;;5.90;99.90;;;;;;5037954;28;20496;-73
2021/11/22 01:54:51;;;;;;;24.60;14.95;;;5.90;99.90;;;;;;5038318;28;20022;-73
2021/11/22 01:57:20;;;;;;;22.48;14.75;;;5.90;99.90;;;;;;5038512;28;20032;-73
2021/11/22 01:59:46;;;;;;;25.45;15.60;;;5.80;99.90;;;;;;5036753;28;20083;-73
2021/11/22 02:02:13;;;;;;;21.55;14.68;;;5.80;99.90;;;;;;5033458;28;20452;-74
2021/11/22 02:04:39;;;;;;;20.52;15.65;;;5.90;99.90;;;;;;5035387;28;20025;-73
2021/11/22 02:07:05;;;;;;;21.58;16.20;;;5.80;99.90;;;;;;5036171;28;20029;-73
2021/11/22 02:09:30;;;;;;;17.65;14.55;;;5.70;99.90;;;;;;5038354;28;20025;-72
2021/11/22 02:11:56;;;;;;;23.15;16.77;;;5.70;99.90;;;;;;5036497;28;20511;-72
2021/11/22 02:14:21;;;;;;;22.17;16.38;;;5.60;99.90;;;;;;5038738;28;20026;-72
2021/11/22 02:16:47;;;;;;;24.80;15.90;;;5.50;99.90;;;;;;5038508;28;20033;-72
2021/11/22 02:19:13;;;;;;;21.52;15.50;;;5.50;99.90;;;;;;5038451;28;20480;-72
2021/11/22 02:21:39;;;;;;;24.77;18.05;;;5.70;99.90;;;;;;5039074;28;20033;-73
2021/11/22 02:24:05;;;;;;;21.52;15.68;;;5.60;99.90;;;;;;5037935;28;20022;-73
2021/11/22 02:26:30;;;;;;;25.88;17.60;;;5.70;99.90;;;;;;5033709;28;20420;-73
2021/11/22 02:28:56;;;;;;;25.77;17.25;;;5.60;99.90;;;;;;5034542;28;20021;-73
2021/11/22 02:31:22;;;;;;;26.20;16.40;;;5.60;99.90;;;;;;5034597;28;20469;-72
2021/11/22 02:33:55;;;;;;;22.33;16.73;;;5.70;99.90;;;;;;5036605;28;20018;-73
2021/11/22 02:36:21;;;;;;;29.65;16.75;;;5.60;99.90;;;;;;5041290;28;20090;-73
2021/11/22 02:38:47;;;;;;;23.98;16.75;;;5.60;99.90;;;;;;5039839;28;20021;-73
2021/11/22 02:41:15;;;;;;;23.65;15.98;;;5.50;99.90;;;;;;5040550;28;20489;-73
2021/11/22 02:43:45;;;;;;;20.33;14.82;;;5.50;99.90;;;;;;5040346;28;20018;-72
2021/11/22 02:46:11;;;;;;;25.60;16.83;;;5.60;99.90;;;;;;5033603;28;20065;-73
2021/11/22 02:48:38;;;;;;;25.48;17.15;;;5.60;99.90;;;;;;5035231;28;20022;-73
2021/11/22 02:51:05;;;;;;;24.45;15.57;;;5.60;99.90;;;;;;5038938;28;20056;-73
2021/11/22 02:53:32;;;;;;;23.15;16.88;;;5.50;99.90;;;;;;5047633;28;20032;-73
2021/11/22 02:56:01;;;;;;;26.80;16.48;;;5.70;99.90;;;;;;5052624;28;20025;-73
2021/11/22 02:58:26;;;;;;;29.05;16.88;;;5.70;99.90;;;;;;5052194;28;20025;-73
2021/11/22 03:00:53;;;;;;;31.42;17.50;;;5.80;99.90;;;;;;5052277;28;20091;-72
2021/11/22 03:03:27;;;;;;;26.45;17.55;;;5.70;99.90;;;;;;5038555;28;20029;-73
2021/11/22 03:06:14;;;;;;;28.75;17.83;;;5.60;99.90;;;;;;5037773;28;20033;-73
2021/11/22 03:08:42;;;;;;;33.03;17.48;;;5.50;99.90;;;;;;5037534;28;20021;-73
2021/11/22 03:11:08;;;;;;;27.45;19.17;;;5.50;99.90;;;;;;5035076;28;20028;-73
2021/11/22 03:13:34;;;;;;;28.13;18.15;;;5.60;99.90;;;;;;5019661;28;20078;-73
2021/11/22 03:16:00;;;;;;;27.52;19.23;;;5.60;99.90;;;;;;5036833;28;20021;-73
2021/11/22 03:18:26;;;;;;;27.70;17.50;;;5.60;99.90;;;;;;5044456;28;20100;-73
2021/11/22 03:20:52;;;;;;;25.70;17.35;;;5.60;99.90;;;;;;5036642;28;20038;-73
2021/11/22 03:23:18;;;;;;;28.77;17.50;;;5.60;99.90;;;;;;5040117;28;20039;-75
2021/11/22 03:25:43;;;;;;;26.42;18.08;;;5.70;99.90;;;;;;5040235;28;20064;-72
2021/11/22 03:28:11;;;;;;;31.70;18.02;;;5.80;99.90;;;;;;5036293;28;20025;-74
2021/11/22 03:30:38;;;;;;;27.58;19.33;;;5.80;99.90;;;;;;5036234;28;20104;-72
2021/11/22 03:33:05;;;;;;;27.70;17.48;;;5.70;99.90;;;;;;5036356;28;20100;-71
2021/11/22 03:35:31;;;;;;;27.70;17.98;;;5.70;99.90;;;;;;5038466;28;20022;-71
2021/11/22 03:37:57;;;;;;;22.92;16.55;;;5.80;99.90;;;;;;5036269;28;20029;-71
2021/11/22 03:40:23;;;;;;;30.88;19.73;;;5.70;99.90;;;;;;5035723;28;20017;-72
2021/11/22 03:43:13;;;;;;;28.90;18.55;;;5.70;99.90;;;;;;5036725;28;20113;-74
2021/11/22 03:45:43;;;;;;;31.10;19.58;;;5.60;99.90;;;;;;5034411;28;20032;-72
2021/11/22 03:48:10;;;;;;;29.90;18.90;;;5.60;99.90;;;;;;5036005;28;20029;-72
2021/11/22 03:50:36;;;;;;;31.48;17.65;;;5.60;99.90;;;;;;5035611;28;20029;-74
2021/11/22 03:53:02;;;;;;;28.10;19.15;;;5.70;99.90;;;;;;5034521;28;20030;-72
2021/11/22 03:55:28;;;;;;;24.80;18.17;;;5.60;99.90;;;;;;5035966;28;20383;-72
2021/11/22 03:57:53;;;;;;;31.58;18.65;;;5.70;99.90;;;;;;5035385;28;20104;-72
2021/11/22 04:00:19;;;;;;;31.20;19.05;;;5.80;99.90;;;;;;5035596;28;20025;-71
2021/11/22 04:02:45;;;;;;;30.55;19.17;;;5.70;99.90;;;;;;5037911;28;20028;-72
2021/11/22 04:05:11;;;;;;;32.60;20.08;;;5.70;99.90;;;;;;5037571;28;20124;-73
2021/11/22 04:07:36;;;;;;;24.02;17.50;;;5.70;99.90;;;;;;5034289;28;20105;-72
2021/11/22 04:10:04;;;;;;;26.58;18.48;;;5.70;99.90;;;;;;5035564;28;20026;-72
2021/11/22 04:12:30;;;;;;;26.83;17.88;;;5.60;99.90;;;;;;5057529;22;20041;-72
2021/11/22 04:14:56;;;;;;;27.55;18.48;;;5.60;99.90;;;;;;5034503;28;20101;-72
2021/11/22 04:17:22;;;;;;;30.23;20.05;;;5.60;99.90;;;;;;5034399;28;20033;-72
2021/11/22 04:19:48;;;;;;;28.52;20.17;;;5.50;99.90;;;;;;5034328;28;20175;-73
2021/11/22 04:22:14;;;;;;;29.88;18.73;;;5.60;99.90;;;;;;5038884;28;20033;-72
2021/11/22 04:24:39;;;;;;;28.33;18.70;;;5.70;99.90;;;;;;5039051;28;20496;-72
2021/11/22 04:27:09;;;;;;;24.30;17.52;;;5.70;99.90;;;;;;5035674;28;20117;-72
2021/11/22 04:29:34;;;;;;;26.58;17.23;;;5.80;99.90;;;;;;5035675;28;20057;-72
2021/11/22 04:32:00;;;;;;;24.83;17.05;;;5.70;99.90;;;;;;5035098;28;20458;-73
2021/11/22 04:34:26;;;;;;;26.55;17.45;;;5.70;99.90;;;;;;5035316;28;20088;-73
2021/11/22 04:36:51;;;;;;;24.27;16.95;;;5.60;99.90;;;;;;5034939;28;20027;-72
2021/11/22 04:39:17;;;;;;;30.13;17.25;;;5.60;99.90;;;;;;5034368;28;20065;-73
2021/11/22 04:41:43;;;;;;;24.83;16.23;;;5.70;99.90;;;;;;5033940;28;20029;-73
2021/11/22 04:44:10;;;;;;;25.13;17.13;;;5.70;99.90;;;;;;5034072;28;20519;-73
2021/11/22 04:46:35;;;;;;;22.73;16.60;;;5.70;99.90;;;;;;5034036;28;20032;-73
2021/11/22 04:49:01;;;;;;;25.70;17.90;;;5.80;99.90;;;;;;5034277;28;20017;-73
2021/11/22 04:51:27;;;;;;;32.22;18.60;;;5.70;99.90;;;;;;5032512;28;20024;-73
2021/11/22 04:53:52;;;;;;;27.08;18.35;;;5.60;99.90;;;;;;5033780;28;20025;-73
2021/11/22 04:56:18;;;;;;;28.35;17.23;;;5.60;99.90;;;;;;5033584;28;20060;-73
2021/11/22 04:58:44;;;;;;;25.83;18.77;;;5.50;99.90;;;;;;5036134;28;20650;-73
2021/11/22 05:01:09;;;;;;;24.38;17.80;;;5.60;99.90;;;;;;5035841;28;20022;-74
2021/11/22 05:03:35;;;;;;;25.05;17.92;;;5.60;99.90;;;;;;5035957;28;20035;-73
2021/11/22 05:06:01;;;;;;;22.88;16.77;;;5.50;99.90;;;;;;5032104;28;20481;-73
2021/11/22 05:08:27;;;;;;;22.83;16.42;;;5.50;99.90;;;;;;5033275;28;20084;-72
2021/11/22 05:10:52;;;;;;;23.98;16.02;;;5.50;99.90;;;;;;5033459;28;20026;-72
2021/11/22 05:13:19;;;;;;;22.08;15.85;;;5.50;99.90;;;;;;5032295;28;20033;-73
2021/11/22 05:15:46;;;;;;;22.05;16.05;;;5.50;99.90;;;;;;5033313;28;20029;-72
2021/11/22 05:18:12;;;;;;;22.70;16.08;;;5.50;99.90;;;;;;5033147;28;20033;-73
2021/11/22 05:20:39;;;;;;;23.67;15.60;;;5.50;99.90;;;;;;5033335;28;20072;-73
2021/11/22 05:23:05;;;;;;;26.00;15.55;;;5.40;99.90;;;;;;5033489;28;20366;-72
2021/11/22 05:25:31;;;;;;;21.23;15.40;;;5.30;99.90;;;;;;5034770;28;20512;-72
2021/11/22 05:27:57;;;;;;;21.65;16.20;;;5.40;99.90;;;;;;5048324;28;20114;-72
2021/11/22 05:30:25;;;;;;;25.20;15.80;;;5.50;99.90;;;;;;5033955;28;20504;-72
2021/11/22 05:32:56;;;;;;;21.38;14.05;;;5.50;99.90;;;;;;5031967;28;20025;-73
2021/11/22 05:35:22;;;;;;;19.98;13.65;;;5.60;99.90;;;;;;5033357;28;20022;-72
2021/11/22 05:37:48;;;;;;;18.80;14.57;;;5.50;99.90;;;;;;5032854;28;20493;-72
2021/11/22 05:40:13;;;;;;;20.23;13.02;;;5.50;99.90;;;;;;5032620;28;20025;-73
2021/11/22 05:42:39;;;;;;;22.63;15.30;;;5.60;99.90;;;;;;5032777;28;20033;-72
2021/11/22 05:45:06;;;;;;;20.13;14.40;;;5.60;99.90;;;;;;5033015;28;20033;-74
2021/11/22 05:47:32;;;;;;;18.65;13.93;;;5.40;99.90;;;;;;5032918;28;20037;-73
2021/11/22 05:50:04;;;;;;;19.65;14.80;;;5.40;99.90;;;;;;5033027;28;20125;-72
2021/11/22 05:52:30;;;;;;;20.63;14.63;;;5.30;99.90;;;;;;5031387;28;20028;-74
2021/11/22 05:54:57;;;;;;;19.73;14.45;;;5.40;99.90;;;;;;5033476;28;20449;-74
2021/11/22 05:57:23;;;;;;;19.88;14.55;;;5.60;99.90;;;;;;5035417;28;20032;-73
2021/11/22 05:59:50;;;;;;;17.70;13.27;;;5.50;99.90;;;;;;5038741;28;20049;-74
2021/11/22 06:02:16;;;;;;;17.88;12.98;;;5.40;99.90;;;;;;5032972;28;20033;-73
2021/11/22 06:04:41;;;;;;;19.98;13.88;;;5.40;99.90;;;;;;5032967;28;20071;-73
2021/11/22 06:07:08;;;;;;;18.58;13.30;;;5.40;99.90;;;;;;5032695;28;20491;-73
2021/11/22 06:09:33;;;;;;;17.33;12.82;;;5.60;99.90;;;;;;5032630;28;20021;-73
2021/11/22 06:11:59;;;;;;;17.58;13.60;;;5.70;99.90;;;;;;5032652;28;20044;-72
2021/11/22 06:14:25;;;;;;;16.90;11.93;;;5.70;99.90;;;;;;5033036;28;20021;-72
2021/11/22 06:16:50;;;;;;;15.52;12.18;;;5.70;99.90;;;;;;5031176;28;20025;-74
2021/11/22 06:19:16;;;;;;;19.67;13.45;;;5.70;99.90;;;;;;5032448;28;20025;-74
2021/11/22 06:21:42;;;;;;;19.77;13.63;;;5.70;99.90;;;;;;5033395;28;20052;-74
2021/11/22 06:24:07;;;;;;;18.92;13.02;;;5.60;99.90;;;;;;5032364;28;20029;-73
2021/11/22 06:26:33;;;;;;;18.67;13.23;;;5.60;99.90;;;;;;5033009;28;20370;-74
2021/11/22 06:28:59;;;;;;;20.55;14.23;;;5.50;99.90;;;;;;5032965;28;20217;-74
2021/11/22 06:31:25;;;;;;;15.48;12.45;;;5.50;99.90;;;;;;5032648;28;20071;-72
2021/11/22 06:33:51;;;;;;;14.02;11.73;;;5.60;99.90;;;;;;5032018;28;20022;-72
2021/11/22 06:36:17;;;;;;;13.70;11.85;;;5.60;99.90;;;;;;5032493;28;20028;-73
2021/11/22 06:38:42;;;;;;;15.57;11.95;;;5.60;99.90;;;;;;5032852;28;20485;-72
2021/11/22 06:41:08;;;;;;;15.32;12.05;;;5.50;99.90;;;;;;5032413;28;20470;-73
2021/11/22 06:43:34;;;;;;;14.23;11.45;;;5.40;99.90;;;;;;5032252;28;20029;-73
2021/11/22 06:45:59;;;;;;;15.85;12.27;;;5.40;99.90;;;;;;5031220;28;20504;-73
2021/11/22 06:48:25;;;;;;;17.73;11.68;;;5.40;99.90;;;;;;5033983;28;20438;-73
2021/11/22 06:50:50;;;;;;;17.05;12.02;;;5.40;99.90;;;;;;5032823;28;20029;-73
2021/11/22 06:53:21;;;;;;;17.52;11.80;;;5.50;99.90;;;;;;5032557;28;20029;-73
2021/11/22 06:55:47;;;;;;;13.30;11.48;;;5.50;99.90;;;;;;5031199;28;20022;-74
2021/11/22 06:58:12;;;;;;;14.77;11.25;;;5.60;99.90;;;;;;5032476;28;20071;-73
2021/11/22 07:00:38;;;;;;;14.57;11.25;;;5.50;99.90;;;;;;5035725;28;20457;-72
2021/11/22 07:03:03;;;;;;;14.10;10.32;;;5.60;99.90;;;;;;5055361;28;20045;-74
2021/11/22 07:05:31;;;;;;;10.93;9.00;;;5.50;99.90;;;;;;5052611;28;20020;-74
2021/11/22 07:07:57;;;;;;;11.70;9.63;;;5.50;99.90;;;;;;5032695;28;20037;-74
2021/11/22 07:10:22;;;;;;;12.90;9.52;;;5.50;99.90;;;;;;5036227;28;20025;-73
2021/11/22 07:12:52;;;;;;;11.07;9.48;;;5.70;99.90;;;;;;5038596;28;20034;-74
2021/11/22 07:15:21;;;;;;;12.85;9.70;;;5.60;99.90;;;;;;5046486;28;20029;-74
2021/11/22 07:17:51;;;;;;;11.98;9.20;;;5.60;99.90;;;;;;5051909;28;20026;-72
2021/11/22 07:20:17;;;;;;;11.05;9.77;;;5.50;99.90;;;;;;5052185;28;20036;-71
2021/11/22 07:22:43;;;;;;;9.93;8.65;;;5.50;99.90;;;;;;5052998;28;20048;-72
2021/11/22 07:25:09;;;;;;;13.13;10.07;;;5.50;99.90;;;;;;5052282;28;20018;-72
2021/11/22 07:27:35;;;;;;;13.40;9.95;;;5.60;99.90;;;;;;5047607;28;20240;-73
2021/11/22 07:30:01;;;;;;;11.68;9.30;;;5.60;99.90;;;;;;5045342;28;20036;-73
2021/11/22 07:32:27;;;;;;;10.85;8.70;;;5.70;99.90;;;;;;5047859;28;20033;-73
2021/11/22 07:34:56;;;;;;;12.02;9.93;;;5.70;99.90;;;;;;5051852;28;20014;-72
2021/11/22 07:37:22;;;;;;;11.23;9.80;;;5.60;99.90;;;;;;5046317;28;20029;-73
2021/11/22 07:39:48;;;;;;;12.90;10.02;;;5.70;99.90;;;;;;5035804;28;20424;-73
2021/11/22 07:42:15;;;;;;;13.18;10.20;;;5.70;99.90;;;;;;5035788;28;20092;-74
2021/11/22 07:44:41;;;;;;;12.73;9.38;;;5.70;99.90;;;;;;5035442;28;20053;-73
2021/11/22 07:47:06;;;;;;;12.93;9.70;;;5.70;99.90;;;;;;5034114;28;20091;-74
2021/11/22 07:49:32;;;;;;;14.95;10.82;;;5.60;99.90;;;;;;5034506;28;20021;-75
2021/11/22 07:51:58;;;;;;;14.02;11.48;;;5.60;99.90;;;;;;5035364;28;20176;-73
2021/11/22 07:54:24;;;;;;;12.57;10.13;;;5.70;99.90;;;;;;5035563;28;20421;-73
2021/11/22 07:56:49;;;;;;;14.23;10.30;;;5.90;99.90;;;;;;5035292;28;20037;-74
2021/11/22 07:59:16;;;;;;;11.07;9.25;;;6.00;99.90;;;;;;5035008;28;20083;-73
2021/11/22 08:01:41;;;;;;;10.38;9.00;;;6.10;99.90;;;;;;5035915;28;20029;-73
2021/11/22 08:04:12;;;;;;;11.80;9.45;;;6.20;99.90;;;;;;5035679;28;20100;-74
2021/11/22 08:06:45;;;;;;;;;;;6.20;99.90;;;;;;5034413;28;20083;-73
2021/11/22 08:09:22;;;;;;;10.10;8.90;;;6.10;99.90;;;;;;5035454;28;19956;-73
2021/11/22 08:14:32;;;;;;;10.93;7.30;;;6.20;99.90;;;;;;5035565;28;20396;-74
2021/11/22 08:16:58;;;;;;;9.43;8.00;;;6.30;99.90;;;;;;5034835;28;20025;-74
2021/11/22 08:19:23;;;;;;;11.77;8.57;;;6.40;99.90;;;;;;5034642;28;20053;-74
2021/11/22 08:21:49;;;;;;;9.48;7.18;;;6.30;99.90;;;;;;5034453;28;20444;-72
2021/11/22 08:24:14;;;;;;;8.85;6.97;;;6.40;99.90;;;;;;5034144;28;20033;-73
2021/11/22 08:26:40;;;;;;;13.35;9.50;;;6.40;99.90;;;;;;5034421;28;20032;-73
2021/11/22 08:29:05;;;;;;;9.45;8.20;;;6.30;99.90;;;;;;5034170;28;20163;-73
2021/11/22 08:31:31;;;;;;;9.98;8.38;;;6.30;99.90;;;;;;5034329;28;20138;-73
2021/11/22 08:33:56;;;;;;;10.63;8.05;;;6.30;99.90;;;;;;5034731;28;20489;-73
2021/11/22 08:36:22;;;;;;;9.13;7.00;;;6.40;99.90;;;;;;5052419;28;20373;-73
2021/11/22 08:38:49;;;;;;;9.98;7.45;;;6.50;99.90;;;;;;5033108;28;20032;-74
2021/11/22 08:41:15;;;;;;;9.30;7.50;;;6.50;99.90;;;;;;5032940;28;20029;-73
2021/11/22 08:43:40;;;;;;;9.95;7.82;;;6.50;99.90;;;;;;5034242;28;20076;-73
2021/11/22 08:46:06;;;;;;;8.75;7.68;;;6.40;99.90;;;;;;5032729;28;20026;-74
2021/11/22 08:48:31;;;;;;;8.93;7.85;;;6.40;99.90;;;;;;5035106;28;20446;-73
2021/11/22 08:50:57;;;;;;;13.45;8.48;;;6.40;99.90;;;;;;5033800;28;20500;-74
2021/11/22 08:53:23;;;;;;;10.60;7.75;;;6.60;99.90;;;;;;5033970;28;20606;-74
2021/11/22 08:55:49;;;;;;;10.18;7.63;;;6.60;99.90;;;;;;5034358;28;20029;-72
2021/11/22 08:58:15;;;;;;;9.68;7.32;;;6.70;99.90;;;;;;5034376;28;20017;-73
2021/11/22 09:00:41;;;;;;;11.65;7.32;;;6.70;99.90;;;;;;5033731;28;20053;-72
2021/11/22 09:03:07;;;;;;;8.77;6.97;;;6.70;99.90;;;;;;5039623;28;20477;-73
2021/11/22 09:05:33;;;;;;;9.50;6.97;;;6.80;99.90;;;;;;5032926;28;20033;-73
2021/11/22 09:07:59;;;;;;;9.60;7.00;;;6.80;99.90;;;;;;5033852;28;20029;-73
2021/11/22 09:10:25;;;;;;;10.88;7.88;;;6.80;99.90;;;;;;5033999;28;20037;-73
2021/11/22 09:12:51;;;;;;;10.38;8.27;;;6.70;99.90;;;;;;5033877;28;20037;-73
2021/11/22 09:15:17;;;;;;;7.72;6.70;;;6.60;99.90;;;;;;5033999;28;20477;-73
2021/11/22 09:17:43;;;;;;;9.80;7.53;;;6.70;99.90;;;;;;5033623;28;20061;-73
2021/11/22 09:20:09;;;;;;;11.48;7.05;;;6.60;99.90;;;;;;5034578;28;20091;-74
2021/11/22 09:22:36;;;;;;;8.80;6.88;;;6.70;99.90;;;;;;5037370;28;20029;-74
2021/11/22 09:25:04;;;;;;;9.95;7.82;;;6.90;99.90;;;;;;5035691;28;20124;-73
2021/11/22 09:27:30;;;;;;;8.80;7.10;;;7.00;99.90;;;;;;5033461;28;20029;-74
2021/11/22 09:29:55;;;;;;;9.52;7.45;;;6.90;99.90;;;;;;5033389;28;20025;-72
2021/11/22 09:32:21;;;;;;;12.70;6.93;;;6.70;99.90;;;;;;5033375;28;20029;-74
2021/11/22 09:34:48;;;;;;;17.45;7.53;;;6.80;99.90;;;;;;5033857;28;20026;-74
2021/11/22 09:37:13;;;;;;;8.40;7.00;;;6.90;99.90;;;;;;5034036;28;20017;-73
2021/11/22 09:39:39;;;;;;;12.05;7.30;;;7.00;99.90;;;;;;5036282;28;20045;-73
2021/11/22 09:42:05;;;;;;;8.25;7.45;;;6.90;99.90;;;;;;5035875;28;20104;-73
2021/11/22 09:44:31;;;;;;;8.45;7.30;;;6.80;99.90;;;;;;5036941;28;20167;-74
2021/11/22 09:46:56;;;;;;;7.88;7.07;;;6.90;99.90;;;;;;5034431;28;20033;-73
2021/11/22 09:49:22;;;;;;;8.93;6.63;;;6.90;99.90;;;;;;5033695;28;20120;-73
2021/11/22 09:51:48;;;;;;;10.30;7.32;;;7.00;99.90;;;;;;5034065;28;20440;-73
2021/11/22 09:54:15;;;;;;;9.95;6.85;;;7.10;99.90;;;;;;5033907;28;20036;-73
2021/11/22 09:56:40;;;;;;;10.60;7.03;;;7.00;99.90;;;;;;5035202;28;20052;-73
2021/11/22 09:59:06;;;;;;;7.40;6.30;;;7.00;99.90;;;;;;5045879;28;20026;-73
2021/11/22 10:01:35;;;;;;;8.88;7.20;;;7.10;99.90;;;;;;5038666;28;20029;-72
2021/11/22 10:04:04;;;;;;;9.88;6.82;;;7.10;99.90;;;;;;5033903;28;20108;-74
2021/11/22 10:06:55;;;;;;;10.45;8.02;;;7.10;99.90;;;;;;5033272;28;20029;-73
2021/11/22 10:09:32;;;;;;;10.40;8.13;;;7.10;99.90;;;;;;5032873;28;20044;-73
2021/11/22 10:12:00;;;;;;;9.70;7.85;;;7.20;99.90;;;;;;5054581;22;20458;-79
2021/11/22 10:14:27;;;;;;;9.32;6.80;;;7.30;99.90;;;;;;5041513;28;20051;-80
2021/11/22 10:16:52;;;;;;;9.27;8.30;;;7.40;99.90;;;;;;5039942;28;20109;-80
2021/11/22 10:19:21;;;;;;;9.73;8.18;;;7.40;99.90;;;;;;5040135;28;20075;-80
2021/11/22 10:21:48;;;;;;;11.68;8.25;;;7.50;99.90;;;;;;5042983;28;20025;-79
2021/11/22 10:24:14;;;;;;;9.40;7.47;;;7.60;99.90;;;;;;5042499;28;20025;-79
2021/11/22 10:26:46;;;;;;;10.50;7.82;;;7.50;99.90;;;;;;5041587;28;20037;-79
2021/11/22 10:29:31;;;;;;;11.18;7.55;;;7.40;99.90;;;;;;5041572;28;20101;-79
2021/11/22 10:32:01;;;;;;;11.18;7.22;;;7.50;99.90;;;;;;5048154;28;20021;-78
2021/11/22 10:34:28;;;;;;;11.60;8.32;;;7.30;99.90;;;;;;5043020;28;20033;-80
2021/11/22 10:37:06;;;;;;;10.43;8.70;;;7.30;99.90;;;;;;5042563;28;20025;-79
2021/11/22 10:39:33;;;;;;;15.13;7.90;;;7.30;99.90;;;;;;5042384;28;20478;-79
2021/11/22 10:41:59;;;;;;;9.75;8.70;;;7.40;99.90;;;;;;5050967;28;20080;-80
2021/11/22 10:44:30;;;;;;;10.70;8.05;;;7.50;99.90;;;;;;5044647;28;20029;-79
2021/11/22 10:47:06;;;;;;;;;;;7.20;99.90;;;;;;5042202;28;20029;-80
2021/11/22 10:49:40;;;;;;;11.40;8.57;;;7.00;99.90;;;;;;5042106;28;19944;-79
2021/11/22 10:52:29;;;;;;;11.02;8.68;;;7.10;99.90;;;;;;5039622;28;20033;-80
2021/11/22 10:54:58;;;;;;;10.57;8.60;;;7.10;99.90;;;;;;5040296;28;20050;-80
2021/11/22 10:57:34;;;;;;;16.30;8.60;;;7.20;99.90;;;;;;5040984;28;20477;-82
2021/11/22 10:59:59;;;;;;;10.32;9.23;;;7.10;99.90;;;;;;5039506;28;20508;-79
2021/11/22 11:02:45;;;;;;;10.48;7.55;;;7.00;99.90;;;;;;5040902;28;20034;-80
2021/11/22 11:05:28;;;;;;;11.50;8.57;;;7.20;99.90;;;;;;5042964;28;20047;-79
2021/11/22 11:07:59;;;;;;;9.80;8.60;;;7.20;99.90;;;;;;5044715;28;20051;-79
2021/11/22 11:10:25;;;;;;;11.95;7.78;;;7.20;99.90;;;;;;5042676;28;20048;-80
2021/11/22 11:12:55;;;;;;;10.18;7.75;;;7.30;99.90;;;;;;5045030;28;20038;-80
2021/11/22 11:15:22;;;;;;;8.52;6.45;;;7.30;99.90;;;;;;5052574;28;20045;-80
2021/11/22 11:17:48;;;;;;;11.52;7.25;;;7.40;99.90;;;;;;5052884;28;20044;-78
2021/11/22 11:20:17;;;;;;;9.73;7.20;;;7.40;99.90;;;;;;5046398;28;20425;-79
2021/11/22 11:22:43;;;;;;;7.30;6.45;;;7.60;99.90;;;;;;5044820;28;20473;-79
2021/11/22 11:25:10;;;;;;;9.52;6.40;;;7.50;99.90;;;;;;5046339;28;20060;-80
2021/11/22 11:27:41;;;;;;;8.15;7.43;;;7.50;99.90;;;;;;5050324;28;20025;-79
2021/11/22 11:30:07;;;;;;;;;;;7.50;99.90;;;;;;5047929;28;20080;-80
2021/11/22 11:32:33;;;;;;;12.50;6.88;;;7.30;99.90;;;;;;5045280;28;19905;-79
2021/11/22 11:34:59;;;;;;;7.85;6.32;;;7.40;99.90;;;;;;5049215;28;20017;-80
2021/11/22 11:37:59;;;;;;;12.38;6.80;;;7.30;99.90;;;;;;5048702;28;20029;-80
2021/11/22 11:40:38;;;;;;;9.90;6.47;;;7.20;99.90;;;;;;5053555;28;20014;-79
2021/11/22 11:43:33;;;;;;;8.93;6.03;;;7.20;99.90;;;;;;5060084;28;20025;-79
2021/11/22 11:46:20;;;;;;;10.40;5.85;;;7.40;99.90;;;;;;5058853;28;20033;-78
2021/11/22 11:49:00;;;;;;;8.00;5.45;;;7.40;99.90;;;;;;5054234;28;20014;-78
2021/11/22 11:51:33;;;;;;;8.70;5.70;;;7.60;99.90;;;;;;5047321;28;20079;-80
2021/11/22 11:54:08;;;;;;;7.32;6.60;;;7.60;99.90;;;;;;5051385;28;20021;-79
2021/11/22 11:57:02;;;;;;;8.73;5.60;;;7.50;99.90;;;;;;5053887;28;20036;-80
2021/11/22 11:59:37;;;;;;;6.45;5.30;;;7.60;99.90;;;;;;5046283;28;20097;-80
2021/11/22 12:02:13;;;;;;;9.07;5.57;;;7.70;99.90;;;;;;5045475;28;20044;-79
2021/11/22 12:04:48;;;;;;;6.03;5.43;;;7.60;99.90;;;;;;5046771;28;20033;-79
2021/11/22 12:07:27;;;;;;;10.18;5.78;;;7.60;99.90;;;;;;5045639;28;20036;-79
2021/11/22 12:10:09;;;;;;;8.77;5.05;;;7.40;99.90;;;;;;5044845;28;20021;-79
2021/11/22 12:12:39;;;;;;;9.68;5.43;;;7.50;99.90;;;;;;5043116;28;20021;-79
2021/11/22 12:15:13;;;;;;;13.00;5.80;;;7.50;99.90;;;;;;5047713;28;20069;-79
2021/11/22 12:17:39;;;;;;;8.52;5.18;;;7.40;99.90;;;;;;5052455;28;20097;-79
2021/11/22 12:20:11;;;;;;;8.95;5.50;;;7.30;99.90;;;;;;5057924;28;20022;-79
2021/11/22 12:22:41;;;;;;;5.65;4.35;;;7.30;99.90;;;;;;5057813;28;20031;-79
2021/11/22 12:25:09;;;;;;;9.45;4.20;;;7.30;99.90;;;;;;5058073;28;20014;-79
2021/11/22 12:27:37;;;;;;;6.03;4.15;;;7.30;99.90;;;;;;5056357;28;20087;-79
2021/11/22 12:30:28;;;;;;;6.47;4.72;;;7.30;99.90;;;;;;5054101;28;20077;-79
2021/11/22 12:33:14;;;;;;;8.95;5.50;;;7.50;99.90;;;;;;5053232;28;20053;-80
2021/11/22 12:35:40;;;;;;;7.57;4.88;;;7.30;99.90;;;;;;5045515;28;20040;-81
2021/11/22 12:38:19;;;;;;;4.32;3.88;;;7.40;99.90;;;;;;5044428;28;20025;-79
2021/11/22 12:40:46;;;;;;;4.93;3.80;;;7.50;99.90;;;;;;5044562;28;20089;-79
2021/11/22 12:43:12;;;;;;;6.38;4.30;;;7.40;99.90;;;;;;5044402;28;20041;-80
2021/11/22 12:45:56;;;;;;;7.18;5.28;;;7.40;99.90;;;;;;5045105;28;20030;-80
2021/11/22 12:48:46;;;;;;;7.70;4.75;;;7.40;99.90;;;;;;5044700;28;20033;-79
2021/11/22 12:51:18;;;;;;;6.27;4.10;;;7.50;99.90;;;;;;5037564;28;20030;-80
2021/11/22 12:54:02;;;;;;;5.95;3.80;;;7.60;99.90;;;;;;5047955;28;20041;-80